This is the latest recevied weather packets stored in our database for station/object 9W2YIE-13. If no packets are shown the sender has not sent any weather packets the latest 10 day(s).
| Time | Temp. | Humidity | Pressure | Rain* | Wind** | Luminosity | Snow |
|---|---|---|---|---|---|---|---|
| 1787757818 | 42.22° C | 34% | 1008 hPa | - | - | 0 W/m² | - |
| 1787756884 | 42.22° C | 35% | 1008 hPa | - | - | 0 W/m² | - |
| 1787755940 | 43.89° C | 32% | 1008 hPa | - | - | 0 W/m² | - |
| 1787754982 | 43.89° C | 31% | 1008 hPa | - | - | 0 W/m² | - |
| 1787754040 | 44.44° C | 31% | 1008 hPa | - | - | 0 W/m² | - |
| 1787753109 | 43.89° C | 32% | 1007 hPa | - | - | 0 W/m² | - |
| 1787752166 | 43.89° C | 32% | 1007 hPa | - | - | 0 W/m² | - |
| 1787751217 | 43.89° C | 32% | 1007 hPa | - | - | 0 W/m² | - |
| 1787750258 | 43.89° C | 32% | 1007 hPa | - | - | 0 W/m² | - |
| 1787749390 | 43.89° C | 31% | 1006 hPa | - | - | 0 W/m² | - |
| 1787748437 | 43.89° C | 32% | 1006 hPa | - | - | 0 W/m² | - |
| 1787747504 | 43.33° C | 33% | 1006 hPa | - | - | 0 W/m² | - |
| 1787746703 | 42.78° C | 33% | 1006 hPa | - | - | 0 W/m² | - |
| 1787745751 | 44.44° C | 30% | 1006 hPa | - | - | 0 W/m² | - |
| 1787744810 | 45° C | 29% | 1006 hPa | - | - | 0 W/m² | - |
| 1787743873 | 45° C | 29% | 1006 hPa | - | - | 0 W/m² | - |
| 1787742946 | 45° C | 29% | 1006 hPa | - | - | 0 W/m² | - |
| 1787742014 | 45° C | 29% | 1006 hPa | - | - | 0 W/m² | - |
| 1787741088 | 44.44° C | 30% | 1006 hPa | - | - | 0 W/m² | - |
| 1787740160 | 45° C | 29% | 1006 hPa | - | - | 0 W/m² | - |
| 1787739232 | 44.44° C | 30% | 1006 hPa | - | - | 0 W/m² | - |
| 1787738273 | 43.89° C | 30% | 1006 hPa | - | - | 0 W/m² | - |
| 1787737335 | 44.44° C | 30% | 1006 hPa | - | - | 0 W/m² | - |
| 1787736405 | 43.33° C | 34% | 1006 hPa | - | - | 0 W/m² | - |
| 1787735449 | 41.11° C | 39% | 1005 hPa | - | - | 0 W/m² | - |
* Rain since midnight (hover to see other rain measurements)
** Current wind speed in m/s (hover to see current wind gust speed)